Time;durP1;ratioP1;P1;durP2;ratioP2;P2;SDS_P1;SDS_P2;PMS_P1;PMS_P2;Temp;Humidity;BMP_temperature;BMP_pressure;BME280_temperature;BME280_humidity;BME280_pressure;Samples;Min_cycle;Max_cycle;Signal;HPM_P1;HPM_P2
2022/03/07 00:00:56;;;;;;;33.50;17.73;;;-2.70;72.10;;;;;;5055487;28;20025;-92
2022/03/07 00:03:21;;;;;;;32.60;18.70;;;-2.60;72.20;;;;;;5038295;28;20032;-84
2022/03/07 00:05:47;;;;;;;35.17;19.92;;;-2.70;72.00;;;;;;5056139;28;20025;-89
2022/03/07 00:08:14;;;;;;;32.10;18.23;;;-2.70;72.00;;;;;;5054925;28;20082;-84
2022/03/07 00:10:40;;;;;;;33.63;18.00;;;-2.70;71.80;;;;;;5055673;28;20029;-93
2022/03/07 00:13:06;;;;;;;32.30;18.63;;;-2.80;70.80;;;;;;5054601;28;20021;-84
2022/03/07 00:15:32;;;;;;;32.55;18.85;;;-2.80;71.00;;;;;;5055187;28;20497;-91
2022/03/07 00:17:58;;;;;;;32.60;18.90;;;-2.70;71.20;;;;;;5056654;28;20036;-88
2022/03/07 00:20:23;;;;;;;33.15;18.90;;;-2.70;71.60;;;;;;5055121;28;20017;-85
2022/03/07 00:22:49;;;;;;;39.00;20.05;;;-2.70;71.20;;;;;;5054732;28;20466;-92
2022/03/07 00:25:16;;;;;;;41.55;19.70;;;-2.70;71.30;;;;;;5054321;28;20066;-87
2022/03/07 00:27:42;;;;;;;35.10;19.67;;;-2.70;71.30;;;;;;5054701;28;20025;-86
2022/03/07 00:30:08;;;;;;;31.33;17.67;;;-2.70;70.80;;;;;;5056348;28;20017;-88
2022/03/07 00:32:34;;;;;;;30.52;17.17;;;-2.70;70.20;;;;;;5054419;28;20079;-84
2022/03/07 00:35:00;;;;;;;31.88;18.50;;;-2.70;70.90;;;;;;5055919;28;20378;-84
2022/03/07 00:37:26;;;;;;;31.52;16.55;;;-2.70;69.80;;;;;;5054280;28;20075;-84
2022/03/07 00:39:52;;;;;;;33.92;18.92;;;-2.70;69.40;;;;;;5055948;28;20044;-93
2022/03/07 00:42:18;;;;;;;31.85;17.38;;;-2.70;69.30;;;;;;5052574;28;20107;-92
2022/03/07 00:44:43;;;;;;;38.45;18.38;;;-2.70;69.50;;;;;;5054328;28;20017;-87
2022/03/07 00:47:10;;;;;;;35.50;19.88;;;-2.70;69.60;;;;;;5053895;28;20021;-84
2022/03/07 00:49:36;;;;;;;37.22;19.85;;;-2.70;69.40;;;;;;5053837;28;20213;-92
2022/03/07 00:52:02;;;;;;;34.55;19.63;;;-2.70;69.50;;;;;;5054433;28;20029;-83
2022/03/07 00:54:28;;;;;;;33.70;19.17;;;-2.80;69.80;;;;;;5055150;28;20017;-90
2022/03/07 00:56:53;;;;;;;34.60;19.52;;;-2.80;70.40;;;;;;5054644;28;20056;-92
2022/03/07 00:59:19;;;;;;;33.45;18.85;;;-2.80;70.70;;;;;;5053939;28;20092;-90
2022/03/07 01:01:45;;;;;;;69.30;30.52;;;-2.90;70.90;;;;;;5053932;28;20105;-87
2022/03/07 01:04:11;;;;;;;67.07;29.50;;;-2.90;71.70;;;;;;5053680;28;20546;-92
2022/03/07 01:06:36;;;;;;;36.45;20.95;;;-2.90;72.60;;;;;;5053257;28;20025;-84
2022/03/07 01:09:02;;;;;;;41.55;21.75;;;-3.00;73.10;;;;;;5054568;28;20029;-84
2022/03/07 01:11:28;;;;;;;40.40;19.83;;;-3.00;73.90;;;;;;5055109;28;20028;-84
2022/03/07 01:13:54;;;;;;;39.20;20.83;;;-3.00;74.60;;;;;;5053590;28;20057;-92
2022/03/07 01:16:19;;;;;;;37.72;21.15;;;-3.10;75.20;;;;;;5053230;28;20079;-91
2022/03/07 01:18:46;;;;;;;44.15;23.08;;;-3.10;76.40;;;;;;5054483;28;20115;-84
2022/03/07 01:21:12;;;;;;;38.83;20.40;;;-3.20;78.40;;;;;;5053889;28;20017;-84
2022/03/07 01:23:38;;;;;;;38.28;21.30;;;-3.20;79.10;;;;;;5053122;28;20044;-92
2022/03/07 01:26:04;;;;;;;40.20;21.80;;;-3.20;79.30;;;;;;5054211;28;20048;-84
2022/03/07 01:28:30;;;;;;;38.47;21.10;;;-3.20;79.00;;;;;;5053110;28;20487;-84
2022/03/07 01:30:55;;;;;;;36.47;21.45;;;-3.20;79.20;;;;;;5053047;28;20029;-90
2022/03/07 01:33:21;;;;;;;43.88;21.73;;;-3.10;78.70;;;;;;5053242;28;20402;-93
2022/03/07 01:35:47;;;;;;;40.20;22.23;;;-3.10;77.80;;;;;;5053277;28;20021;-87
2022/03/07 01:38:12;;;;;;;41.80;20.90;;;-3.10;77.90;;;;;;5053458;28;20470;-92
2022/03/07 01:40:40;;;;;;;44.38;22.80;;;-3.00;77.90;;;;;;5053503;28;20021;-85
2022/03/07 01:43:07;;;;;;;42.70;22.65;;;-3.00;78.20;;;;;;5053983;28;20017;-84
2022/03/07 01:45:33;;;;;;;39.63;20.52;;;-3.00;78.50;;;;;;5054286;28;20573;-92
2022/03/07 01:47:59;;;;;;;37.72;21.50;;;-3.00;78.70;;;;;;5053544;28;20025;-90
2022/03/07 01:50:25;;;;;;;42.40;21.92;;;-3.00;78.20;;;;;;5053223;28;20033;-86
2022/03/07 01:52:53;;;;;;;37.08;23.10;;;-3.00;77.60;;;;;;5054092;28;20017;-93
2022/03/07 01:55:20;;;;;;;42.60;22.42;;;-3.00;77.70;;;;;;5051943;28;20031;-84
2022/03/07 01:57:47;;;;;;;41.35;21.98;;;-2.90;77.60;;;;;;5053487;28;20403;-92
2022/03/07 02:00:16;;;;;;;36.45;21.83;;;-2.90;76.40;;;;;;5052587;28;20040;-92
2022/03/07 02:02:43;;;;;;;49.28;25.17;;;-2.90;76.80;;;;;;5054595;28;20048;-91
2022/03/07 02:05:10;;;;;;;39.05;20.63;;;-2.90;76.60;;;;;;5054461;28;20021;-84
2022/03/07 02:07:36;;;;;;;41.83;23.05;;;-2.90;75.90;;;;;;5052686;28;20061;-92
2022/03/07 02:10:04;;;;;;;41.33;22.25;;;-2.90;75.40;;;;;;5053264;28;20133;-91
2022/03/07 02:12:30;;;;;;;46.67;24.15;;;-2.90;75.50;;;;;;5052953;28;20029;-84
2022/03/07 02:14:56;;;;;;;51.67;29.52;;;-3.00;74.90;;;;;;5053777;28;20048;-89
2022/03/07 02:17:22;;;;;;;46.72;24.77;;;-2.90;75.00;;;;;;5053299;28;20032;-83
2022/03/07 02:19:48;;;;;;;53.70;26.08;;;-3.00;74.50;;;;;;5053344;28;20028;-85
2022/03/07 02:22:15;;;;;;;43.75;22.88;;;-3.00;74.70;;;;;;5052364;28;20028;-84
2022/03/07 02:24:41;;;;;;;38.65;20.85;;;-3.00;74.60;;;;;;5051956;28;20080;-84
2022/03/07 02:27:09;;;;;;;36.80;18.65;;;-3.00;73.20;;;;;;5053475;28;20032;-85
2022/03/07 02:29:35;;;;;;;40.20;21.45;;;-3.00;71.80;;;;;;5053037;28;20017;-92
2022/03/07 02:32:02;;;;;;;36.40;19.85;;;-3.10;71.70;;;;;;5052318;28;20048;-92
2022/03/07 02:34:28;;;;;;;39.83;20.80;;;-3.00;71.50;;;;;;5052260;28;20104;-84
2022/03/07 02:36:54;;;;;;;32.47;18.55;;;-3.10;68.70;;;;;;5051851;28;20124;-92
2022/03/07 02:39:20;;;;;;;40.97;21.30;;;-3.10;67.90;;;;;;5052290;28;20025;-88
2022/03/07 02:41:46;;;;;;;39.40;20.48;;;-3.10;67.70;;;;;;5052591;28;20538;-84
2022/03/07 02:44:12;;;;;;;35.33;20.10;;;-3.00;67.90;;;;;;5052404;28;20471;-91
2022/03/07 02:46:38;;;;;;;40.38;20.20;;;-3.00;68.90;;;;;;5052323;28;20017;-90
2022/03/07 02:49:05;;;;;;;41.58;21.15;;;-3.00;69.40;;;;;;5052371;28;20025;-91
2022/03/07 02:51:31;;;;;;;50.83;23.75;;;-3.00;69.80;;;;;;5052214;28;20025;-91
2022/03/07 02:53:57;;;;;;;41.55;22.15;;;-3.00;70.10;;;;;;5052027;28;20086;-83
2022/03/07 02:56:23;;;;;;;47.50;24.88;;;-3.00;70.30;;;;;;5053987;28;20032;-84
2022/03/07 02:58:49;;;;;;;40.90;22.52;;;-3.00;70.30;;;;;;5054318;28;20036;-84
2022/03/07 03:01:14;;;;;;;43.33;23.98;;;-3.00;70.60;;;;;;5071633;28;20574;-86
2022/03/07 03:03:41;;;;;;;35.13;21.48;;;-3.10;71.30;;;;;;5071711;28;20027;-84
2022/03/07 03:06:07;;;;;;;41.10;22.42;;;-3.10;70.40;;;;;;5074954;28;20026;-84
2022/03/07 03:08:33;;;;;;;43.38;23.05;;;-3.10;70.10;;;;;;5076799;28;20032;-84
2022/03/07 03:11:01;;;;;;;39.85;19.75;;;-3.10;70.30;;;;;;5075811;28;20029;-85
2022/03/07 03:13:27;;;;;;;35.13;20.70;;;-3.10;70.10;;;;;;5076629;28;20032;-85
2022/03/07 03:15:54;;;;;;;39.08;22.00;;;-3.10;70.30;;;;;;5076285;28;20025;-84
2022/03/07 03:18:21;;;;;;;49.92;22.20;;;-3.10;70.50;;;;;;5074950;28;20082;-84
2022/03/07 03:20:48;;;;;;;40.83;21.02;;;-3.00;70.50;;;;;;5075519;28;20029;-91
2022/03/07 03:23:14;;;;;;;41.00;22.13;;;-3.10;70.10;;;;;;5075604;28;20067;-92
2022/03/07 03:25:40;;;;;;;43.35;21.52;;;-3.10;69.20;;;;;;5075488;28;20025;-89
2022/03/07 03:28:05;;;;;;;34.30;22.13;;;-3.20;68.90;;;;;;5075229;28;20028;-84
2022/03/07 03:30:31;;;;;;;45.53;22.00;;;-3.20;69.20;;;;;;5075281;28;20040;-84
2022/03/07 03:32:57;;;;;;;46.72;21.65;;;-3.10;69.50;;;;;;5076198;28;20032;-85
2022/03/07 03:35:23;;;;;;;43.60;21.17;;;-3.20;69.50;;;;;;5076050;28;20020;-84
2022/03/07 03:37:50;;;;;;;39.17;21.52;;;-3.20;69.70;;;;;;5075126;28;20036;-84
2022/03/07 03:40:15;;;;;;;41.33;21.83;;;-3.20;70.00;;;;;;5076017;28;20103;-91
2022/03/07 03:42:41;;;;;;;41.88;22.83;;;-3.20;70.20;;;;;;5075003;28;20053;-84
2022/03/07 03:45:08;;;;;;;44.47;21.90;;;-3.20;70.70;;;;;;5076258;28;20111;-83
2022/03/07 03:47:43;;;;;;;42.10;22.85;;;-3.30;70.00;;;;;;5075336;28;20447;-84
2022/03/07 03:50:11;;;;;;;43.78;22.30;;;-3.30;70.10;;;;;;5076076;28;20099;-84
2022/03/07 03:52:37;;;;;;;42.33;22.35;;;-3.30;70.10;;;;;;5075342;28;20354;-88
2022/03/07 03:55:05;;;;;;;43.80;23.83;;;-3.40;70.40;;;;;;5075321;28;20032;-84
2022/03/07 03:57:31;;;;;;;41.13;22.25;;;-3.30;70.20;;;;;;5076210;28;20043;-92
2022/03/07 03:59:57;;;;;;;46.70;23.83;;;-3.40;69.80;;;;;;5074379;28;20060;-92
2022/03/07 04:02:23;;;;;;;52.75;23.20;;;-3.40;69.70;;;;;;5074944;28;20049;-83
2022/03/07 04:04:49;;;;;;;43.58;22.73;;;-3.40;70.10;;;;;;5074820;28;20377;-88
2022/03/07 04:07:14;;;;;;;45.03;22.75;;;-3.30;70.10;;;;;;5074320;28;20028;-84
2022/03/07 04:09:40;;;;;;;50.00;25.10;;;-3.40;70.10;;;;;;5075832;28;20059;-84
2022/03/07 04:12:07;;;;;;;45.83;22.48;;;-3.40;70.00;;;;;;5074423;28;20386;-90
2022/03/07 04:14:33;;;;;;;46.30;24.27;;;-3.40;70.00;;;;;;5074046;28;20491;-84
2022/03/07 04:16:59;;;;;;;39.78;21.63;;;-3.40;70.50;;;;;;5075045;28;20039;-91
2022/03/07 04:19:25;;;;;;;39.92;23.13;;;-3.30;70.80;;;;;;5074429;28;20029;-88
2022/03/07 04:21:52;;;;;;;43.72;23.27;;;-3.30;71.20;;;;;;5074885;28;20028;-83
2022/03/07 04:24:18;;;;;;;44.33;22.45;;;-3.40;71.30;;;;;;5075573;28;20470;-91
2022/03/07 04:26:44;;;;;;;47.15;22.02;;;-3.30;71.30;;;;;;5074187;28;20046;-84
2022/03/07 04:29:10;;;;;;;43.47;24.20;;;-3.40;71.10;;;;;;5075192;28;20028;-85
2022/03/07 04:31:38;;;;;;;47.67;22.13;;;-3.50;71.80;;;;;;5074369;28;20045;-90
2022/03/07 04:34:04;;;;;;;40.90;21.95;;;-3.40;72.10;;;;;;5074206;28;20112;-93
2022/03/07 04:36:30;;;;;;;46.33;23.38;;;-3.40;72.70;;;;;;5075325;28;20016;-91
2022/03/07 04:38:56;;;;;;;41.80;21.70;;;-3.40;73.30;;;;;;5073437;28;20028;-84
2022/03/07 04:41:22;;;;;;;41.30;21.38;;;-3.40;73.70;;;;;;5073941;28;20021;-87
2022/03/07 04:43:48;;;;;;;40.53;21.67;;;-3.40;73.60;;;;;;5074969;28;20047;-91
2022/03/07 04:46:13;;;;;;;37.35;19.25;;;-3.40;74.30;;;;;;5074731;28;20016;-89
2022/03/07 04:48:39;;;;;;;36.20;19.33;;;-3.30;74.50;;;;;;5075437;28;20021;-93
2022/03/07 04:51:05;;;;;;;36.20;20.50;;;-3.40;75.20;;;;;;5075272;28;20023;-90
2022/03/07 04:53:31;;;;;;;39.10;20.73;;;-3.40;76.00;;;;;;5074048;28;20371;-84
2022/03/07 04:55:57;;;;;;;43.85;23.58;;;-3.40;77.50;;;;;;5074414;28;20040;-84
2022/03/07 04:58:23;;;;;;;46.85;25.65;;;-3.50;77.70;;;;;;5073139;28;20053;-83
2022/03/07 05:00:48;;;;;;;51.03;25.67;;;-3.40;78.90;;;;;;5074555;28;20593;-84
2022/03/07 05:03:14;;;;;;;40.85;21.83;;;-3.40;79.30;;;;;;5073016;28;20111;-84
2022/03/07 05:05:40;;;;;;;38.88;19.42;;;-3.40;80.40;;;;;;5073735;28;20020;-86
2022/03/07 05:08:06;;;;;;;40.72;20.50;;;-3.40;81.30;;;;;;5073323;28;20036;-92
2022/03/07 05:10:32;;;;;;;33.92;20.05;;;-3.50;81.30;;;;;;5073542;28;20063;-90
2022/03/07 05:12:58;;;;;;;35.42;19.80;;;-3.50;82.50;;;;;;5073286;28;20044;-83
2022/03/07 05:15:23;;;;;;;36.47;20.85;;;-3.50;83.20;;;;;;5074783;28;20103;-90
2022/03/07 05:17:53;;;;;;;37.38;19.50;;;-3.40;84.10;;;;;;5072961;28;20070;-91
2022/03/07 05:20:19;;;;;;;30.40;19.33;;;-3.40;84.30;;;;;;5074412;28;20017;-83
2022/03/07 05:22:45;;;;;;;49.47;23.98;;;-3.50;84.60;;;;;;5073312;28;20017;-84
2022/03/07 05:25:13;;;;;;;46.20;23.58;;;-3.50;85.90;;;;;;5074216;28;20024;-84
2022/03/07 05:27:39;;;;;;;40.42;20.65;;;-3.60;87.00;;;;;;5072563;28;20465;-89
2022/03/07 05:30:07;;;;;;;35.15;18.55;;;-3.60;88.60;;;;;;5072702;28;20061;-84
2022/03/07 05:32:32;;;;;;;38.25;20.55;;;-3.60;89.20;;;;;;5073090;28;20470;-84
2022/03/07 05:34:58;;;;;;;33.10;18.83;;;-3.60;89.40;;;;;;5072425;28;20017;-84
2022/03/07 05:37:24;;;;;;;34.78;18.80;;;-3.60;89.30;;;;;;5072504;28;20089;-90
2022/03/07 05:39:50;;;;;;;30.00;18.45;;;-3.60;89.50;;;;;;5072821;28;20042;-90
2022/03/07 05:42:18;;;;;;;39.72;19.60;;;-3.60;90.40;;;;;;5072904;28;20116;-84
2022/03/07 05:44:44;;;;;;;38.40;19.65;;;-3.70;90.80;;;;;;5073740;28;20077;-91
2022/03/07 05:47:10;;;;;;;34.13;19.92;;;-3.60;91.60;;;;;;5072451;28;20416;-91
2022/03/07 05:49:36;;;;;;;38.45;20.45;;;-3.60;92.50;;;;;;5074048;28;20028;-84
2022/03/07 05:52:03;;;;;;;37.95;20.08;;;-3.60;93.50;;;;;;5072222;28;20036;-85
2022/03/07 05:54:29;;;;;;;34.33;18.85;;;-3.60;93.90;;;;;;5073720;28;20107;-84
2022/03/07 05:56:56;;;;;;;37.42;19.60;;;-3.60;94.90;;;;;;5073030;28;20111;-83
2022/03/07 05:59:21;;;;;;;40.25;19.50;;;-3.60;95.10;;;;;;5073438;28;20490;-84
2022/03/07 06:01:47;;;;;;;37.80;20.10;;;-3.60;97.20;;;;;;5073282;28;20031;-83
2022/03/07 06:04:13;;;;;;;38.05;20.52;;;-3.60;97.90;;;;;;5073446;28;20021;-88
2022/03/07 06:06:39;;;;;;;33.63;19.42;;;-3.60;98.60;;;;;;5071931;28;20107;-82
2022/03/07 06:09:05;;;;;;;37.33;19.23;;;-3.50;99.20;;;;;;5057307;28;20045;-83
2022/03/07 06:11:31;;;;;;;39.65;20.10;;;-3.50;99.40;;;;;;5056622;28;20028;-89
2022/03/07 06:13:57;;;;;;;43.65;21.63;;;-3.50;99.90;;;;;;5061103;28;20020;-84
2022/03/07 06:16:23;;;;;;;39.63;22.17;;;-3.40;99.90;;;;;;5052527;28;20075;-90
2022/03/07 06:18:48;;;;;;;48.90;24.90;;;-3.40;99.90;;;;;;5068936;28;20079;-83
2022/03/07 06:21:14;;;;;;;40.38;21.70;;;-3.40;99.90;;;;;;5072402;28;20024;-91
2022/03/07 06:23:42;;;;;;;41.92;21.92;;;-3.40;99.90;;;;;;5070135;28;20548;-91
2022/03/07 06:26:08;;;;;;;39.92;22.20;;;-3.30;99.90;;;;;;5070547;28;20031;-84
2022/03/07 06:28:36;;;;;;;39.33;20.90;;;-3.40;99.90;;;;;;5060804;28;20037;-92
2022/03/07 06:31:02;;;;;;;36.25;20.05;;;-3.40;99.90;;;;;;5050745;28;20040;-90
2022/03/07 06:33:29;;;;;;;38.28;22.35;;;-3.30;99.90;;;;;;5052465;28;20029;-92
2022/03/07 06:35:57;;;;;;;43.15;22.35;;;-3.30;99.90;;;;;;5050032;28;20040;-90
2022/03/07 06:38:23;;;;;;;38.70;20.73;;;-3.20;99.90;;;;;;5050222;28;20040;-83
2022/03/07 06:40:52;;;;;;;38.60;21.25;;;-3.20;99.90;;;;;;5053374;28;20389;-89
2022/03/07 06:43:18;;;;;;;42.53;22.45;;;-3.20;99.90;;;;;;5063190;28;20028;-83
2022/03/07 06:45:45;;;;;;;42.28;22.00;;;-3.10;99.90;;;;;;5095790;28;20023;-84
2022/03/07 06:48:11;;;;;;;45.08;22.27;;;-3.10;99.90;;;;;;5097160;28;20477;-90
2022/03/07 06:50:36;;;;;;;41.22;21.83;;;-3.00;99.90;;;;;;5096327;28;20028;-88
2022/03/07 06:53:02;;;;;;;39.03;21.73;;;-3.00;99.90;;;;;;5095821;28;20035;-90
2022/03/07 06:55:28;;;;;;;43.85;21.02;;;-3.00;99.90;;;;;;5096632;28;20432;-88
2022/03/07 06:57:55;;;;;;;51.35;22.70;;;-3.00;99.90;;;;;;5087315;28;20039;-83
2022/03/07 07:00:21;;;;;;;36.35;20.42;;;-2.90;99.90;;;;;;5065081;28;20105;-87
2022/03/07 07:02:47;;;;;;;39.25;21.02;;;-2.90;99.90;;;;;;5056684;28;20025;-83
2022/03/07 07:05:14;;;;;;;45.03;22.08;;;-2.90;99.90;;;;;;5055680;28;20035;-85
2022/03/07 07:07:40;;;;;;;44.65;21.08;;;-2.90;99.90;;;;;;5056483;28;20029;-90
2022/03/07 07:10:07;;;;;;;42.88;21.75;;;-2.90;99.90;;;;;;5055343;28;20029;-89
2022/03/07 07:12:34;;;;;;;37.88;21.00;;;-2.80;99.90;;;;;;5056038;28;20021;-89
2022/03/07 07:15:00;;;;;;;41.20;20.52;;;-2.80;99.40;;;;;;5053178;28;20025;-84
2022/03/07 07:17:26;;;;;;;40.72;20.17;;;-2.80;99.00;;;;;;5054884;28;20037;-90
2022/03/07 07:19:51;;;;;;;39.47;21.08;;;-2.70;98.90;;;;;;5053828;28;20036;-84
2022/03/07 07:22:17;;;;;;;40.75;20.05;;;-2.60;99.50;;;;;;5053971;28;20090;-83
2022/03/07 07:24:43;;;;;;;37.30;21.38;;;-2.60;99.10;;;;;;5054228;28;20040;-89
2022/03/07 07:27:09;;;;;;;35.05;20.58;;;-2.50;96.20;;;;;;5055176;28;20029;-84
2022/03/07 07:29:35;;;;;;;35.97;19.17;;;-2.50;96.00;;;;;;5056053;28;20023;-90
2022/03/07 07:32:02;;;;;;;39.40;20.23;;;-2.50;94.10;;;;;;5054906;28;20024;-84
2022/03/07 07:34:28;;;;;;;61.90;26.08;;;-2.40;95.40;;;;;;5056476;28;20017;-83
2022/03/07 07:36:54;;;;;;;224.45;88.18;;;-2.50;92.10;;;;;;5056293;28;20021;-89
2022/03/07 07:39:20;;;;;;;172.77;67.28;;;-2.40;90.60;;;;;;5056620;28;20107;-89
2022/03/07 07:41:46;;;;;;;407.85;153.10;;;-2.40;90.30;;;;;;5054673;28;20462;-86
2022/03/07 07:44:12;;;;;;;111.05;46.22;;;-2.30;90.80;;;;;;5056503;28;20029;-89
2022/03/07 07:46:37;;;;;;;132.55;55.58;;;-2.30;88.60;;;;;;5055833;28;20033;-90
2022/03/07 07:49:05;;;;;;;250.45;88.03;;;-2.20;86.70;;;;;;5056006;28;20025;-83
2022/03/07 07:51:31;;;;;;;347.88;125.50;;;-2.30;85.80;;;;;;5054000;28;20031;-90
2022/03/07 07:53:57;;;;;;;374.17;136.20;;;-2.20;86.70;;;;;;5054501;28;20534;-83
2022/03/07 07:56:23;;;;;;;54.85;27.98;;;-2.20;84.50;;;;;;5055107;28;20099;-89
2022/03/07 07:58:49;;;;;;;46.58;24.35;;;-2.20;84.00;;;;;;5054242;28;20045;-91
2022/03/07 08:01:14;;;;;;;155.98;56.28;;;-2.10;83.80;;;;;;5054661;28;20079;-84
2022/03/07 08:03:40;;;;;;;36.40;19.95;;;-2.00;83.60;;;;;;5055916;28;20021;-92
2022/03/07 08:06:06;;;;;;;37.53;18.40;;;-2.10;81.10;;;;;;5054353;28;20017;-90
2022/03/07 08:08:32;;;;;;;71.05;27.67;;;-2.10;81.10;;;;;;5054562;28;20190;-91
2022/03/07 08:10:57;;;;;;;236.65;72.68;;;-2.00;81.00;;;;;;5054665;28;20021;-85
2022/03/07 08:13:23;;;;;;;154.65;60.17;;;-1.90;81.40;;;;;;5055491;28;20532;-92
2022/03/07 08:15:49;;;;;;;132.80;50.50;;;-1.90;81.00;;;;;;5054300;28;20021;-90
2022/03/07 08:18:15;;;;;;;121.07;40.40;;;-1.70;80.40;;;;;;5054222;28;20090;-83
2022/03/07 08:20:40;;;;;;;114.95;38.65;;;-1.70;79.40;;;;;;5053961;28;20127;-86
2022/03/07 08:23:06;;;;;;;81.03;31.75;;;-1.60;78.60;;;;;;5054465;28;20024;-83
2022/03/07 08:25:32;;;;;;;44.38;21.33;;;-1.50;77.70;;;;;;5055486;28;20017;-84
2022/03/07 08:27:59;;;;;;;46.33;23.40;;;-1.60;75.50;;;;;;5055453;28;20017;-84
2022/03/07 08:30:26;;;;;;;385.77;114.70;;;-1.50;74.70;;;;;;5054741;28;20029;-90
2022/03/07 08:32:52;;;;;;;190.88;57.88;;;-1.50;75.70;;;;;;5053877;28;20078;-92
2022/03/07 08:35:19;;;;;;;87.63;34.95;;;-1.40;76.50;;;;;;5055341;28;20100;-85
2022/03/07 08:37:47;;;;;;;38.42;19.45;;;-1.40;74.80;;;;;;5054287;28;20033;-83
2022/03/07 08:40:15;;;;;;;83.57;38.95;;;-1.40;74.60;;;;;;5055031;28;20025;-92
2022/03/07 08:42:42;;;;;;;43.75;21.85;;;-1.30;74.70;;;;;;5054081;28;20025;-83
2022/03/07 08:45:08;;;;;;;54.47;23.60;;;-1.30;74.50;;;;;;5053899;28;20029;-90
2022/03/07 08:47:36;;;;;;;99.03;37.47;;;-1.30;73.00;;;;;;5054638;28;20066;-84
2022/03/07 08:50:03;;;;;;;52.17;25.17;;;-1.20;73.10;;;;;;5055128;28;20031;-92
2022/03/07 08:52:28;;;;;;;42.65;20.48;;;-1.10;71.80;;;;;;5053759;28;20530;-84
2022/03/07 08:54:54;;;;;;;84.85;44.45;;;-1.00;71.80;;;;;;5054719;28;20108;-87
2022/03/07 08:57:20;;;;;;;66.68;28.25;;;-0.90;71.10;;;;;;5053801;28;20039;-84
2022/03/07 08:59:45;;;;;;;29.52;17.25;;;-0.90;70.00;;;;;;5061921;28;20048;-83
2022/03/07 09:02:12;;;;;;;68.82;28.38;;;-1.00;70.10;;;;;;5074309;28;20025;-92
2022/03/07 09:04:40;;;;;;;45.60;21.02;;;-1.10;70.40;;;;;;5072935;28;20028;-84
2022/03/07 09:07:06;;;;;;;32.22;17.77;;;-0.90;70.60;;;;;;5074729;28;20025;-84
2022/03/07 09:09:32;;;;;;;28.67;16.33;;;-0.80;70.20;;;;;;5073350;28;20461;-83
2022/03/07 09:11:58;;;;;;;26.85;15.38;;;-0.70;68.30;;;;;;5074587;28;20107;-92
2022/03/07 09:14:24;;;;;;;47.15;22.10;;;-0.60;67.80;;;;;;5073412;28;20470;-84
2022/03/07 09:16:50;;;;;;;34.65;17.05;;;-0.50;67.90;;;;;;5074491;28;20025;-92
2022/03/07 09:19:16;;;;;;;37.90;20.25;;;-0.40;67.00;;;;;;5073578;28;20017;-84
2022/03/07 09:21:41;;;;;;;30.65;17.05;;;-0.40;66.60;;;;;;5074106;28;20493;-90
2022/03/07 09:24:07;;;;;;;37.95;17.13;;;-0.30;66.20;;;;;;5073384;28;20367;-88
2022/03/07 09:26:33;;;;;;;31.65;16.50;;;-0.30;66.10;;;;;;5072885;28;20452;-91
2022/03/07 09:28:59;;;;;;;35.00;16.63;;;-0.20;65.80;;;;;;5072788;28;20390;-92
2022/03/07 09:31:25;;;;;;;31.73;18.00;;;-0.20;66.50;;;;;;5073026;28;20482;-85
2022/03/07 09:33:51;;;;;;;28.27;15.32;;;-0.20;65.40;;;;;;5072833;28;20397;-92
2022/03/07 09:36:17;;;;;;;29.00;17.17;;;-0.30;64.60;;;;;;5074069;28;20032;-89
2022/03/07 09:38:43;;;;;;;29.17;16.08;;;-0.30;64.50;;;;;;5072780;28;20446;-83
2022/03/07 09:41:10;;;;;;;30.98;15.52;;;-0.30;64.60;;;;;;5073853;28;20020;-91
2022/03/07 09:43:36;;;;;;;35.35;16.98;;;-0.20;64.10;;;;;;5072564;28;20070;-92
2022/03/07 09:46:05;;;;;;;26.58;14.75;;;-0.20;64.20;;;;;;5072338;28;20478;-83
2022/03/07 09:48:31;;;;;;;30.55;16.40;;;-0.20;63.90;;;;;;5072397;28;20078;-84
2022/03/07 09:50:58;;;;;;;28.40;14.85;;;-0.20;64.20;;;;;;5072687;28;20489;-87
2022/03/07 09:53:23;;;;;;;26.98;15.20;;;-0.20;64.10;;;;;;5073497;28;20505;-84
2022/03/07 09:55:50;;;;;;;27.35;13.25;;;-0.10;64.10;;;;;;5072341;28;20025;-85
2022/03/07 09:58:16;;;;;;;26.25;13.80;;;0.00;62.90;;;;;;5073620;28;20162;-92
2022/03/07 10:00:43;;;;;;;22.67;13.75;;;0.00;62.30;;;;;;5072822;28;20072;-83
2022/03/07 10:03:14;;;;;;;17.70;11.52;;;0.10;62.50;;;;;;5073243;28;20059;-84
2022/03/07 10:05:45;;;;;;;18.08;10.43;;;-0.10;61.60;;;;;;5073399;28;20017;-84
2022/03/07 10:08:20;;;;;;;19.48;11.85;;;0.00;60.40;;;;;;5072352;28;20024;-93
2022/03/07 10:10:46;;;;;;;19.13;10.23;;;0.10;59.90;;;;;;5071878;28;20031;-83
2022/03/07 10:13:14;;;;;;;17.75;9.38;;;0.10;59.70;;;;;;5072536;28;20024;-84
2022/03/07 10:15:42;;;;;;;15.57;8.73;;;0.50;59.10;;;;;;5072226;28;20016;-83
2022/03/07 10:18:17;;;;;;;16.60;10.32;;;0.60;58.40;;;;;;5071878;28;20041;-92
2022/03/07 10:20:54;;;;;;;14.73;9.15;;;0.70;58.50;;;;;;5072536;28;20016;-84
2022/03/07 10:23:21;;;;;;;21.27;10.70;;;0.80;58.00;;;;;;5072252;28;20027;-93
2022/03/07 10:25:47;;;;;;;13.55;8.80;;;0.50;57.80;;;;;;5072094;28;20123;-84
2022/03/07 10:28:13;;;;;;;17.15;9.05;;;0.50;58.00;;;;;;5072275;28;20036;-84
2022/03/07 10:30:42;;;;;;;13.95;7.90;;;0.50;58.20;;;;;;5073196;28;20103;-94
2022/03/07 10:33:13;;;;;;;12.75;6.25;;;0.50;57.50;;;;;;5072074;28;20032;-94
2022/03/07 10:35:44;;;;;;;12.38;7.20;;;0.30;56.30;;;;;;5072107;28;20039;-94
2022/03/07 10:38:18;;;;;;;10.80;6.65;;;0.40;56.40;;;;;;5072109;28;20037;-93
2022/03/07 10:40:52;;;;;;;10.20;6.38;;;0.60;56.40;;;;;;5072008;28;20478;-93
2022/03/07 10:43:18;;;;;;;11.23;6.47;;;0.60;56.30;;;;;;5072426;28;20044;-90
2022/03/07 10:45:55;;;;;;;15.50;7.95;;;0.70;56.10;;;;;;5072003;28;20092;-85
2022/03/07 10:48:23;;;;;;;19.15;9.45;;;0.90;56.50;;;;;;5072646;28;20427;-92
2022/03/07 10:50:52;;;;;;;10.85;6.68;;;1.00;56.10;;;;;;5071978;28;20163;-93
2022/03/07 10:53:18;;;;;;;11.57;6.97;;;1.00;55.80;;;;;;5071976;28;20032;-84
2022/03/07 10:55:54;;;;;;;11.23;6.75;;;0.90;55.90;;;;;;5071503;28;20355;-91
2022/03/07 10:58:20;;;;;;;9.48;6.20;;;0.80;55.90;;;;;;5071434;28;20102;-83
2022/03/07 11:00:53;;;;;;;7.50;5.97;;;0.80;55.90;;;;;;5072067;28;20489;-93
2022/03/07 11:03:20;;;;;;;9.20;6.40;;;0.80;55.80;;;;;;5071847;28;20062;-92
2022/03/07 11:05:47;;;;;;;9.68;6.55;;;1.00;55.40;;;;;;5072154;28;20020;-94
2022/03/07 11:08:15;;;;;;;10.93;6.65;;;1.00;55.10;;;;;;5071789;28;20583;-85
2022/03/07 11:10:46;;;;;;;17.95;8.05;;;1.10;55.50;;;;;;5073044;28;20497;-84
2022/03/07 11:13:16;;;;;;;15.10;8.13;;;1.20;55.70;;;;;;5071639;28;20020;-95
2022/03/07 11:15:44;;;;;;;10.02;7.13;;;1.20;56.00;;;;;;5072135;28;20043;-93
2022/03/07 11:18:14;;;;;;;11.98;6.50;;;1.30;56.10;;;;;;5072013;28;20127;-94
2022/03/07 11:20:41;;;;;;;11.48;7.13;;;1.30;55.70;;;;;;5071528;28;20070;-85
2022/03/07 11:23:10;;;;;;;10.25;6.80;;;1.30;55.30;;;;;;5072164;28;20107;-92
2022/03/07 11:25:37;;;;;;;17.95;7.50;;;1.20;55.10;;;;;;5071472;28;20068;-94
2022/03/07 11:28:04;;;;;;;16.02;6.85;;;1.30;55.40;;;;;;5074556;28;20088;-94
2022/03/07 11:30:34;;;;;;;13.98;7.40;;;1.20;55.30;;;;;;5075318;28;20048;-92
2022/03/07 11:33:17;;;;;;;13.13;7.25;;;1.30;55.40;;;;;;5075261;28;20024;-84
2022/03/07 11:35:49;;;;;;;9.68;6.35;;;1.40;55.40;;;;;;5074185;28;20046;-84
2022/03/07 11:38:23;;;;;;;8.57;5.60;;;1.40;55.30;;;;;;5075020;28;20036;-93
2022/03/07 11:41:11;;;;;;;8.63;6.22;;;1.40;55.10;;;;;;5075461;28;20021;-94
2022/03/07 11:44:15;;;;;;;10.10;6.00;;;1.40;55.20;;;;;;5074929;28;20032;-88
2022/03/07 11:46:47;;;;;;;8.93;6.60;;;1.30;55.70;;;;;;4998084;28;20032;-84
2022/03/07 11:49:26;;;;;;;8.43;5.50;;;1.30;55.80;;;;;;5063156;28;20401;-94
2022/03/07 11:52:06;;;;;;;7.47;4.93;;;1.30;55.80;;;;;;5075497;28;20035;-95
2022/03/07 11:54:32;;;;;;;7.13;5.70;;;1.40;55.80;;;;;;5075405;28;20074;-94
2022/03/07 11:57:10;;;;;;;9.88;5.72;;;1.50;55.70;;;;;;5075371;28;20028;-91
2022/03/07 11:59:36;;;;;;;7.93;5.43;;;1.70;55.10;;;;;;5074768;28;20056;-87
2022/03/07 12:02:03;;;;;;;9.13;6.00;;;2.10;55.60;;;;;;5075291;28;20017;-94
2022/03/07 12:04:44;;;;;;;13.45;6.72;;;1.80;54.60;;;;;;5075263;28;20024;-94
2022/03/07 12:07:10;;;;;;;8.60;6.63;;;1.70;55.20;;;;;;5076167;28;20040;-84
2022/03/07 12:09:38;;;;;;;10.02;6.13;;;1.80;55.20;;;;;;5075481;28;20077;-93
2022/03/07 12:12:06;;;;;;;9.20;6.55;;;1.70;55.10;;;;;;5074403;28;20060;-85
2022/03/07 12:14:35;;;;;;;10.57;6.38;;;1.70;54.90;;;;;;5074609;28;20024;-85
2022/03/07 12:17:10;;;;;;;9.57;5.88;;;1.80;56.10;;;;;;5075643;28;20017;-94
2022/03/07 12:19:36;;;;;;;6.15;5.55;;;2.00;55.40;;;;;;5074708;28;20017;-84
2022/03/07 12:22:13;;;;;;;48.95;21.92;;;2.20;55.00;;;;;;5073775;28;20534;-95
2022/03/07 12:24:39;;;;;;;7.18;5.38;;;2.30;54.10;;;;;;5074122;28;20021;-94
2022/03/07 12:27:07;;;;;;;10.88;6.22;;;2.50;53.90;;;;;;5074199;28;20107;-82
2022/03/07 12:29:33;;;;;;;7.50;5.07;;;2.70;53.90;;;;;;5075206;28;20074;-92